Terminal Aerodrome Forecast
Issued by NWS

Home | Current Version | Previous Version | Graphics & Text | Print | Product List | Glossary On
Versions: 1 2 3 4 5 6 7 8 9 10 11 12 13 14 15 16 17
000
FTUS43 KIWX 310520
TAFSBN
TAF
KSBN 310520Z 3106/0106 00000KT 3SM BR SKC
      TEMPO 3107/3109 1/2SM FG
     FM310900 00000KT 1/4SM FG VV002
     FM311300 VRB02KT 3/4SM BR OVC005
     FM311430 22003KT 4SM BR SCT006 BKN012
     FM311600 22006KT P6SM BKN020
     FM311900 22007KT P6SM SCT030=

USA.gov is the U.S. government's official web portal to all federal, state and local government web resources and services.